Wallis Run, Pennsylvania
Current Conditions -  °F | °C
As of 4:54 AM on Saturday 20 Dec 2014 (Local Time) from KIPT Reporting Station
Overcast Overcast  
Wind Chill: 24°   Ceiling: 3000
Heat Index: 31°   Visibility: 10mi
Dew Point: 20°   Wind: 7mph
Humidity: 64%   Direction: 270°W
Pressure: 30.25"   Gusts: NA
Location:  41.4223°N, 76.9976°W
Report Text: KIPT 200954Z AUTO 27006KT 10SM OVC030 M01/M07 A3025 RMK AO2 SLP248 T10061067
Loading
Personal Weather Stations






























Interactive Weather Map New forecast layout! Learn more

10-Day Weather Forecast

Advertisements
Track Severe Weather on mobile